Leechburg, Pennsylvania
Current Conditions -  °F | °C
As of 1:55 AM on Thursday 27 Nov 2014 (Local Time) from KBTP Reporting Station
Overcast Overcast  
Wind Chill: -1°   Ceiling: 3400
Heat Index: -1°   Visibility: 4mi
Dew Point: -1°   Wind: 0mph
Humidity: 100%   Direction: NA
Pressure: 30"   Gusts: NA
Location:  40.63°N, 79.61°W
Report Text: KBTP 270655Z AUTO 00000KT 4SM OVC034 M01/M01 A3000 RMK AO1
Loading
Personal Weather Stations






























Interactive Weather Map New forecast layout! Learn more

10-Day Weather Forecast

Advertisements
Track Severe Weather on mobile